Time;durP1;ratioP1;P1;durP2;ratioP2;P2;SDS_P1;SDS_P2;PMS_P1;PMS_P2;Temp;Humidity;BMP_temperature;BMP_pressure;BME280_temperature;BME280_humidity;BME280_pressure;Samples;Min_cycle;Max_cycle;Signal;HPM_P1;HPM_P2
2023/07/06 00:00:00;;;;;;;;;;;;;;;23.97;49.88;96999.63;4245077;27;5494;-64
2023/07/06 00:02:04;;;;;;;;;;;;;;;23.96;49.78;97000.69;4244350;27;5666;-64
2023/07/06 00:04:07;;;;;;;;;;;;;;;23.95;49.94;97003.69;4252810;27;5598;-64
2023/07/06 00:06:10;;;;;;;;;;;;;;;23.95;49.97;96998.28;4253094;27;5673;-64
2023/07/06 00:08:16;;;;;;;;;;;;;;;23.94;50.41;97002.06;4253136;27;5757;-64
2023/07/06 00:10:19;;;;;;;;;;;;;;;23.92;49.95;97004.22;4252973;27;5780;-64
2023/07/06 00:12:22;;;;;;;;;;;;;;;23.93;49.90;97005.84;4250689;27;5274;-64
2023/07/06 00:14:26;;;;;;;;;;;;;;;23.92;50.01;97009.63;4252509;27;5759;-64
2023/07/06 00:16:29;;;;;;;;;;;;;;;23.90;50.18;97006.38;4253146;27;7402;-64
2023/07/06 00:18:33;;;;;;;;;;;;;;;23.90;50.44;97000.97;4243833;27;5067;-64
2023/07/06 00:20:37;;;;;;;;;;;;;;;23.89;50.46;97010.16;4246349;27;5616;-65
2023/07/06 00:22:40;;;;;;;;;;;;;;;23.86;50.21;97010.72;4242378;27;5828;-64
2023/07/06 00:24:46;;;;;;;;;;;;;;;23.85;50.65;97014.50;4252146;27;6389;-64
2023/07/06 00:26:49;;;;;;;;;;;;;;;23.83;50.59;97012.06;4252693;27;7674;-64
2023/07/06 00:28:53;;;;;;;;;;;;;;;23.84;50.26;97018.28;4247277;27;6413;-64
2023/07/06 00:31:06;;;;;;;;;;;;;;;23.84;50.70;97012.88;4243055;27;5577;-64
2023/07/06 00:33:09;;;;;;;;;;;;;;;23.84;50.35;97010.97;4243466;27;5754;-64
2023/07/06 00:35:13;;;;;;;;;;;;;;;23.84;50.76;97012.88;4248509;27;7679;-64
2023/07/06 00:37:16;;;;;;;;;;;;;;;23.83;50.46;97005.88;4252411;27;5586;-64
2023/07/06 00:39:19;;;;;;;;;;;;;;;23.79;50.88;96995.63;4252120;27;5884;-64
2023/07/06 00:41:22;;;;;;;;;;;;;;;23.74;51.03;96992.91;4252795;27;5490;-64
2023/07/06 00:43:27;;;;;;;;;;;;;;;23.72;51.14;96986.97;4252817;27;5603;-64
2023/07/06 00:45:30;;;;;;;;;;;;;;;23.70;51.11;96991.84;4251858;27;5603;-64
2023/07/06 00:47:38;;;;;;;;;;;;;;;23.69;51.26;96992.94;4251672;27;5903;-64
2023/07/06 00:49:42;;;;;;;;;;;;;;;23.69;51.00;97000.22;4252514;27;5582;-64
2023/07/06 00:51:45;;;;;;;;;;;;;;;23.68;51.53;96994.00;4252071;27;5677;-64
2023/07/06 00:53:52;;;;;;;;;;;;;;;23.68;51.55;97001.31;4252203;27;5578;-64
2023/07/06 00:55:58;;;;;;;;;;;;;;;23.69;51.47;97000.22;4252028;27;5578;-64
2023/07/06 00:58:07;;;;;;;;;;;;;;;23.69;51.77;96997.53;4252340;27;5608;-64
2023/07/06 01:00:13;;;;;;;;;;;;;;;23.67;51.32;97003.19;4252246;27;5674;-64
2023/07/06 01:02:19;;;;;;;;;;;;;;;23.66;51.42;96995.34;4247133;27;5831;-64
2023/07/06 01:04:23;;;;;;;;;;;;;;;23.63;51.73;96995.88;4250973;27;5760;-64
2023/07/06 01:06:31;;;;;;;;;;;;;;;23.62;51.44;97000.47;4251683;27;5674;-64
2023/07/06 01:08:35;;;;;;;;;;;;;;;23.60;51.76;96999.94;4252057;27;5794;-63
2023/07/06 01:10:39;;;;;;;;;;;;;;;23.60;51.90;96991.84;4250772;27;5580;-63
2023/07/06 01:12:42;;;;;;;;;;;;;;;23.56;51.80;96988.06;4251211;27;5678;-64
2023/07/06 01:14:46;;;;;;;;;;;;;;;23.54;51.75;96991.00;4252002;27;5466;-63
2023/07/06 01:16:55;;;;;;;;;;;;;;;23.55;51.93;96994.50;4250331;27;5685;-64
2023/07/06 01:19:04;;;;;;;;;;;;;;;23.54;51.86;96992.91;4250805;27;6465;-64
2023/07/06 01:21:16;;;;;;;;;;;;;;;23.53;52.05;96986.69;4243262;27;5697;-64
2023/07/06 01:23:51;;;;;;;;;;;;;;;23.54;52.23;96974.81;4251409;27;5146;-64
2023/07/06 01:26:12;;;;;;;;;;;;;;;23.54;51.77;96976.69;4247750;27;5604;-64
2023/07/06 01:28:37;;;;;;;;;;;;;;;23.50;51.90;96976.44;4245098;27;5587;-64
2023/07/06 01:31:16;;;;;;;;;;;;;;;23.48;52.13;96972.41;4255513;27;5579;-64
2023/07/06 01:33:28;;;;;;;;;;;;;;;23.48;52.36;96975.09;4249013;27;5753;-64
2023/07/06 01:35:42;;;;;;;;;;;;;;;23.47;52.10;96963.50;4249688;27;6290;-64
2023/07/06 01:37:46;;;;;;;;;;;;;;;23.47;52.14;96965.41;4242836;27;5840;-64
2023/07/06 01:39:50;;;;;;;;;;;;;;;23.47;51.99;96965.41;4234417;27;5696;-64
2023/07/06 01:42:29;;;;;;;;;;;;;;;23.46;52.10;96953.78;4246410;27;5870;-64
2023/07/06 01:44:33;;;;;;;;;;;;;;;23.45;52.10;96957.56;4247006;27;5594;-64
2023/07/06 01:46:34;;;;;;;;;;;;;;;23.43;52.52;96954.31;4249583;27;5788;-64
2023/07/06 01:48:39;;;;;;;;;;;;;;;23.45;52.29;96951.38;4251026;27;5498;-64
2023/07/06 01:50:48;;;;;;;;;;;;;;;23.44;52.28;96949.72;4249497;27;5677;-64
2023/07/06 01:53:08;;;;;;;;;;;;;;;23.43;52.30;96951.63;4250255;27;5627;-64
2023/07/06 01:55:20;;;;;;;;;;;;;;;23.43;52.20;96956.19;4244379;27;5758;-64
2023/07/06 01:57:28;;;;;;;;;;;;;;;23.40;51.97;96954.88;4251376;27;5591;-64
2023/07/06 01:59:35;;;;;;;;;;;;;;;23.39;52.42;96952.44;4250369;27;5479;-64
2023/07/06 02:01:42;;;;;;;;;;;;;;;23.37;52.30;96950.03;4248689;27;5674;-64
2023/07/06 02:03:50;;;;;;;;;;;;;;;23.37;52.46;96950.03;4251487;27;5590;-64
2023/07/06 02:05:53;;;;;;;;;;;;;;;23.37;52.53;96947.31;4248025;27;5622;-64
2023/07/06 02:07:57;;;;;;;;;;;;;;;23.35;52.27;96944.09;4249413;27;6324;-64
2023/07/06 02:10:00;;;;;;;;;;;;;;;23.33;52.15;96946.25;4241557;27;5757;-64
2023/07/06 02:12:03;;;;;;;;;;;;;;;23.27;51.92;96943.81;4251729;27;5582;-64
2023/07/06 02:14:06;;;;;;;;;;;;;;;23.22;52.04;96950.84;4251242;27;5678;-64
2023/07/06 02:16:09;;;;;;;;;;;;;;;23.22;52.20;96945.44;4250509;27;5674;-64
2023/07/06 02:18:12;;;;;;;;;;;;;;;23.18;52.29;96938.97;4247050;27;5637;-64
2023/07/06 02:20:19;;;;;;;;;;;;;;;23.14;52.12;96940.59;4249868;27;5942;-64
2023/07/06 02:22:25;;;;;;;;;;;;;;;23.13;51.87;96940.84;4245017;27;6406;-64
2023/07/06 02:24:27;;;;;;;;;;;;;;;23.13;52.05;96933.56;4250841;27;5594;-64
2023/07/06 02:26:29;;;;;;;;;;;;;;;23.13;51.77;96938.97;4251112;27;6292;-64
2023/07/06 02:28:33;;;;;;;;;;;;;;;23.14;51.69;96934.38;4251071;27;5804;-64
2023/07/06 02:30:37;;;;;;;;;;;;;;;23.15;51.66;96933.31;4251318;27;5698;-63
2023/07/06 02:32:40;;;;;;;;;;;;;;;23.12;51.53;96926.56;4250269;27;6984;-64
2023/07/06 02:34:43;;;;;;;;;;;;;;;23.07;51.58;96926.56;4246588;27;5657;-64
2023/07/06 02:36:49;;;;;;;;;;;;;;;23.06;51.44;96938.41;4248611;27;5083;-64
2023/07/06 02:38:52;;;;;;;;;;;;;;;23.03;51.68;96936.28;4251267;27;5825;-64
2023/07/06 02:40:55;;;;;;;;;;;;;;;23.04;51.49;96926.28;4250868;27;5763;-64
2023/07/06 02:42:58;;;;;;;;;;;;;;;23.03;51.47;96930.88;4242741;27;5711;-64
2023/07/06 02:45:01;;;;;;;;;;;;;;;23.06;51.33;96930.31;4242376;27;5806;-64
2023/07/06 02:47:05;;;;;;;;;;;;;;;23.04;51.35;96921.72;4249976;27;5633;-64
2023/07/06 02:49:08;;;;;;;;;;;;;;;23.01;51.31;96919.56;4251239;27;5474;-64
2023/07/06 02:51:10;;;;;;;;;;;;;;;22.94;50.98;96919.81;4246443;27;5609;-64
2023/07/06 02:53:15;;;;;;;;;;;;;;;22.90;50.75;96920.63;4243406;27;5616;-64
2023/07/06 02:55:18;;;;;;;;;;;;;;;22.85;50.71;96915.22;4250515;27;5582;-64
2023/07/06 02:57:21;;;;;;;;;;;;;;;22.80;51.00;96924.09;4250286;27;5594;-64
2023/07/06 02:59:24;;;;;;;;;;;;;;;22.82;50.93;96923.81;4250711;27;5748;-65
2023/07/06 03:01:27;;;;;;;;;;;;;;;22.81;50.72;96914.94;4251241;27;5591;-64
2023/07/06 03:03:30;;;;;;;;;;;;;;;22.81;50.76;96914.13;4251036;27;5602;-64
2023/07/06 03:05:33;;;;;;;;;;;;;;;22.82;50.47;96913.84;4250919;27;5762;-64
2023/07/06 03:07:36;;;;;;;;;;;;;;;22.82;50.21;96913.03;4249759;27;5582;-64
2023/07/06 03:09:42;;;;;;;;;;;;;;;22.79;50.50;96918.97;4246872;27;5780;-64
2023/07/06 03:11:47;;;;;;;;;;;;;;;22.78;50.08;96911.97;4253311;27;5590;-64
2023/07/06 03:13:50;;;;;;;;;;;;;;;22.79;50.61;96910.88;4252977;27;5698;-64
2023/07/06 03:15:53;;;;;;;;;;;;;;;22.79;50.16;96918.97;4253855;27;7411;-64
2023/07/06 03:17:56;;;;;;;;;;;;;;;22.85;50.27;96915.22;4254029;27;5677;-64
2023/07/06 03:19:59;;;;;;;;;;;;;;;22.89;50.13;96921.72;4252699;27;6167;-64
2023/07/06 03:22:02;;;;;;;;;;;;;;;22.90;50.22;96918.75;4258208;27;5694;-64
2023/07/06 03:24:07;;;;;;;;;;;;;;;22.91;50.29;96924.94;4253483;27;6283;-64
2023/07/06 03:26:11;;;;;;;;;;;;;;;22.91;50.22;96924.94;4249246;27;5578;-64
2023/07/06 03:28:15;;;;;;;;;;;;;;;22.94;50.23;96930.59;4253167;27;6425;-64
2023/07/06 03:30:21;;;;;;;;;;;;;;;22.99;50.04;96927.13;4253785;27;5876;-64
2023/07/06 03:32:25;;;;;;;;;;;;;;;23.00;49.97;96933.31;4254018;27;5585;-64
2023/07/06 03:34:28;;;;;;;;;;;;;;;23.01;49.89;96934.94;4253698;27;5494;-64
2023/07/06 03:36:33;;;;;;;;;;;;;;;23.01;50.30;96926.84;4252717;27;5863;-64
2023/07/06 03:38:36;;;;;;;;;;;;;;;22.99;50.43;96931.66;4253755;27;5602;-64
2023/07/06 03:40:39;;;;;;;;;;;;;;;22.98;50.43;96925.47;4253169;27;7766;-64
2023/07/06 03:42:45;;;;;;;;;;;;;;;22.98;50.06;96928.16;4246824;27;5591;-64
2023/07/06 03:44:48;;;;;;;;;;;;;;;22.96;50.05;96933.03;4253290;27;5976;-64
2023/07/06 03:46:51;;;;;;;;;;;;;;;22.98;50.33;96930.06;4260779;27;5695;-64
2023/07/06 03:48:55;;;;;;;;;;;;;;;23.00;50.37;96936.81;4254149;27;5609;-64
2023/07/06 03:51:03;;;;;;;;;;;;;;;22.99;50.56;96932.50;4253687;27;5491;-64
2023/07/06 03:53:07;;;;;;;;;;;;;;;22.97;50.36;96926.53;4245998;27;5680;-64
2023/07/06 03:55:14;;;;;;;;;;;;;;;22.96;50.64;96930.31;4253303;27;5681;-64
2023/07/06 03:57:17;;;;;;;;;;;;;;;22.98;50.47;96930.84;4253518;27;5681;-64
2023/07/06 03:59:22;;;;;;;;;;;;;;;22.99;50.54;96926.28;4248143;27;5785;-64
2023/07/06 04:01:25;;;;;;;;;;;;;;;22.99;50.60;96927.13;4253442;27;5594;-64
2023/07/06 04:03:27;;;;;;;;;;;;;;;23.01;50.52;96930.34;4253040;27;5666;-64
2023/07/06 04:05:33;;;;;;;;;;;;;;;22.99;50.03;96924.41;4256387;27;5777;-64
2023/07/06 04:07:36;;;;;;;;;;;;;;;22.98;50.09;96928.16;4250188;27;5725;-64
2023/07/06 04:09:39;;;;;;;;;;;;;;;23.00;50.00;96928.72;4252479;27;5665;-64
2023/07/06 04:11:42;;;;;;;;;;;;;;;23.01;50.36;96933.03;4248386;27;5611;-64
2023/07/06 04:13:45;;;;;;;;;;;;;;;23.00;50.24;96934.13;4248303;27;5594;-65
2023/07/06 04:15:52;;;;;;;;;;;;;;;23.00;50.50;96934.13;4246640;27;5700;-64
2023/07/06 04:17:55;;;;;;;;;;;;;;;23.01;50.41;96934.94;4243401;27;5487;-64
2023/07/06 04:19:59;;;;;;;;;;;;;;;23.02;50.43;96940.03;4252913;27;5779;-64
2023/07/06 04:22:03;;;;;;;;;;;;;;;23.02;50.48;96939.25;4244095;27;5943;-64
2023/07/06 04:24:07;;;;;;;;;;;;;;;23.01;50.17;96938.44;4252491;27;5698;-64
2023/07/06 04:26:10;;;;;;;;;;;;;;;23.01;50.40;96938.44;4250182;27;5781;-64
2023/07/06 04:28:15;;;;;;;;;;;;;;;23.03;50.22;96935.47;4251710;27;6352;-64
2023/07/06 04:30:18;;;;;;;;;;;;;;;23.01;50.06;96934.94;4250978;27;7117;-63
2023/07/06 04:32:23;;;;;;;;;;;;;;;23.01;50.59;96935.72;4241693;27;5665;-64
2023/07/06 04:34:27;;;;;;;;;;;;;;;23.00;50.22;96934.13;4246113;27;5566;-64
2023/07/06 04:36:31;;;;;;;;;;;;;;;23.01;50.21;96941.13;4251438;27;5484;-64
2023/07/06 04:38:34;;;;;;;;;;;;;;;22.98;50.13;96941.63;4251668;27;5772;-64
2023/07/06 04:40:41;;;;;;;;;;;;;;;23.01;50.54;96941.13;4250556;27;5575;-64
2023/07/06 04:42:46;;;;;;;;;;;;;;;23.02;50.32;96945.44;4252536;27;5526;-64
2023/07/06 04:44:49;;;;;;;;;;;;;;;23.00;50.57;96931.41;4245569;27;5708;-64
2023/07/06 04:46:59;;;;;;;;;;;;;;;23.01;50.68;96943.00;4244348;27;5593;-64
2023/07/06 04:49:03;;;;;;;;;;;;;;;23.02;50.61;96941.94;4225152;28;5608;-64
2023/07/06 04:51:08;;;;;;;;;;;;;;;23.01;50.41;96946.53;4251718;27;5770;-64
2023/07/06 04:53:11;;;;;;;;;;;;;;;23.01;50.39;96941.13;4252219;27;5611;-64
2023/07/06 04:55:18;;;;;;;;;;;;;;;23.04;50.39;96939.78;4252113;27;5577;-64
2023/07/06 04:57:21;;;;;;;;;;;;;;;23.03;50.52;96940.84;4252380;27;5583;-64
2023/07/06 04:59:24;;;;;;;;;;;;;;;23.03;50.50;96947.06;4252016;27;5665;-64
2023/07/06 05:01:27;;;;;;;;;;;;;;;23.04;50.67;96950.56;4252113;27;5658;-64
2023/07/06 05:03:30;;;;;;;;;;;;;;;23.02;50.41;96948.13;4252197;27;5579;-64
2023/07/06 05:05:39;;;;;;;;;;;;;;;23.01;50.54;96946.53;4251323;27;5578;-65
2023/07/06 05:07:42;;;;;;;;;;;;;;;22.97;51.01;96950.81;4248243;27;5765;-64
2023/07/06 05:09:44;;;;;;;;;;;;;;;22.93;50.97;96949.75;4248156;27;5574;-64
2023/07/06 05:11:47;;;;;;;;;;;;;;;22.94;50.57;96954.06;4248723;27;5677;-64
2023/07/06 05:13:50;;;;;;;;;;;;;;;22.96;50.79;96957.28;4251151;27;7658;-65
2023/07/06 05:15:53;;;;;;;;;;;;;;;22.99;50.76;96964.03;4248995;27;5963;-64
2023/07/06 05:17:57;;;;;;;;;;;;;;;23.01;50.76;96960.00;4250546;27;5648;-64
2023/07/06 05:20:00;;;;;;;;;;;;;;;23.04;50.22;96962.16;4242435;27;5609;-64
2023/07/06 05:22:05;;;;;;;;;;;;;;;23.05;50.19;96955.69;4240813;27;5586;-64
2023/07/06 05:24:11;;;;;;;;;;;;;;;23.09;50.31;96955.94;4242029;27;5680;-64
2023/07/06 05:26:14;;;;;;;;;;;;;;;23.12;50.61;96964.31;4246243;27;5710;-64
2023/07/06 05:28:20;;;;;;;;;;;;;;;23.17;50.35;96958.09;4248619;27;5604;-64
2023/07/06 05:30:24;;;;;;;;;;;;;;;23.21;50.36;96956.47;4251775;27;5594;-64
2023/07/06 05:32:27;;;;;;;;;;;;;;;23.24;50.54;96961.34;4250801;27;5678;-65
2023/07/06 05:34:30;;;;;;;;;;;;;;;23.27;50.25;96960.81;4251221;27;5665;-64
2023/07/06 05:36:36;;;;;;;;;;;;;;;23.28;50.43;96961.63;4250920;27;5763;-65
2023/07/06 05:38:40;;;;;;;;;;;;;;;23.29;50.29;96955.13;4248276;27;5593;-65
2023/07/06 05:40:43;;;;;;;;;;;;;;;23.31;50.48;96963.78;4247305;27;5833;-64
2023/07/06 05:42:46;;;;;;;;;;;;;;;23.38;50.52;96961.63;4243203;27;5610;-64
2023/07/06 05:44:50;;;;;;;;;;;;;;;23.48;50.47;96959.72;4247484;27;5574;-64
2023/07/06 05:46:53;;;;;;;;;;;;;;;23.58;50.60;96953.53;4249117;27;5666;-64
2023/07/06 05:48:56;;;;;;;;;;;;;;;23.66;50.30;96961.06;4250738;27;5732;-65
2023/07/06 05:50:59;;;;;;;;;;;;;;;23.76;49.99;96960.25;4251605;27;5975;-64
2023/07/06 05:53:02;;;;;;;;;;;;;;;23.85;49.84;96963.19;4251175;27;5666;-64
2023/07/06 05:55:08;;;;;;;;;;;;;;;23.92;49.93;96961.84;4242009;27;5605;-65
2023/07/06 05:57:14;;;;;;;;;;;;;;;24.03;49.75;96970.72;4251399;27;5587;-62
2023/07/06 05:59:19;;;;;;;;;;;;;;;24.11;49.67;96970.13;4246738;27;5666;-63
2023/07/06 06:01:24;;;;;;;;;;;;;;;24.19;49.90;96966.06;4251515;27;6121;-63
2023/07/06 06:03:27;;;;;;;;;;;;;;;24.25;49.64;96978.47;4251290;27;5661;-64
2023/07/06 06:05:31;;;;;;;;;;;;;;;24.30;49.52;96984.69;4251260;27;5609;-63
2023/07/06 06:07:34;;;;;;;;;;;;;;;24.35;49.36;96984.69;4250711;27;5585;-63
2023/07/06 06:09:37;;;;;;;;;;;;;;;24.33;49.64;96986.03;4251443;27;5491;-63
2023/07/06 06:11:42;;;;;;;;;;;;;;;24.25;49.70;96982.00;4238691;27;5799;-62
2023/07/06 06:13:45;;;;;;;;;;;;;;;24.22;49.61;96982.53;4248161;27;5578;-63
2023/07/06 06:15:48;;;;;;;;;;;;;;;24.20;49.84;96987.41;4250543;27;5654;-63
2023/07/06 06:17:51;;;;;;;;;;;;;;;24.19;49.39;96988.47;4250869;27;5635;-63
2023/07/06 06:19:55;;;;;;;;;;;;;;;24.18;49.78;96986.88;4249445;27;5099;-63
2023/07/06 06:21:59;;;;;;;;;;;;;;;24.18;49.33;96980.66;4251386;27;5554;-63
2023/07/06 06:24:08;;;;;;;;;;;;;;;24.18;49.66;96986.06;4242952;27;5684;-63
2023/07/06 06:26:10;;;;;;;;;;;;;;;24.19;49.81;96991.19;4243840;27;5856;-63
2023/07/06 06:28:16;;;;;;;;;;;;;;;24.17;49.79;96985.25;4244635;27;5696;-63
2023/07/06 06:30:19;;;;;;;;;;;;;;;24.16;49.76;96991.75;4251229;27;5810;-63
2023/07/06 06:32:22;;;;;;;;;;;;;;;24.14;49.65;96985.81;4246697;27;5079;-63
2023/07/06 06:34:25;;;;;;;;;;;;;;;24.15;49.63;96994.72;4250749;27;5602;-63
2023/07/06 06:36:28;;;;;;;;;;;;;;;24.16;49.73;96990.94;4250822;27;5728;-63
2023/07/06 06:38:34;;;;;;;;;;;;;;;24.16;49.79;96994.44;4242720;27;5579;-63
2023/07/06 06:40:37;;;;;;;;;;;;;;;24.15;49.47;97003.63;4250865;27;5697;-64
2023/07/06 06:42:40;;;;;;;;;;;;;;;24.13;49.58;96989.59;4250384;27;5486;-63
2023/07/06 06:44:45;;;;;;;;;;;;;;;24.10;49.30;96995.53;4251475;27;5633;-64
2023/07/06 06:46:48;;;;;;;;;;;;;;;24.10;49.81;96992.81;4254383;27;7072;-63
2023/07/06 06:48:51;;;;;;;;;;;;;;;24.11;49.34;96999.84;4251315;27;6445;-64
2023/07/06 06:50:55;;;;;;;;;;;;;;;24.12;49.65;97001.47;4253654;27;5661;-64
2023/07/06 06:53:00;;;;;;;;;;;;;;;24.14;49.24;96996.63;4254466;27;5507;-64
2023/07/06 06:55:04;;;;;;;;;;;;;;;24.18;49.30;97003.06;4254233;27;5946;-64
2023/07/06 06:57:07;;;;;;;;;;;;;;;24.19;49.21;96993.88;4254441;27;5582;-64
2023/07/06 06:59:11;;;;;;;;;;;;;;;24.20;49.52;96998.19;4251335;27;5586;-64
2023/07/06 07:01:15;;;;;;;;;;;;;;;24.21;49.24;97002.50;4251924;27;6275;-65
2023/07/06 07:03:18;;;;;;;;;;;;;;;24.20;49.58;97002.78;4234787;28;6532;-65
2023/07/06 07:05:21;;;;;;;;;;;;;;;24.21;49.09;97001.72;4253189;27;5657;-65
2023/07/06 07:07:25;;;;;;;;;;;;;;;24.24;49.55;96999.28;4249187;27;5669;-65
2023/07/06 07:09:28;;;;;;;;;;;;;;;24.26;49.17;97002.50;4254270;27;5491;-65
2023/07/06 07:11:31;;;;;;;;;;;;;;;24.29;49.15;97006.56;4253852;27;5518;-65
2023/07/06 07:13:35;;;;;;;;;;;;;;;24.33;49.01;97004.94;4253901;27;5781;-64
2023/07/06 07:15:38;;;;;;;;;;;;;;;24.35;49.39;97003.59;4254068;27;5712;-65
2023/07/06 07:17:44;;;;;;;;;;;;;;;24.33;48.90;97005.75;4252532;27;6375;-65
2023/07/06 07:19:48;;;;;;;;;;;;;;;24.33;49.27;97000.34;4246664;27;6294;-65
2023/07/06 07:21:51;;;;;;;;;;;;;;;24.31;49.20;96994.41;4251469;27;5594;-65
2023/07/06 07:23:55;;;;;;;;;;;;;;;24.29;49.18;97001.97;4240969;27;5679;-65
2023/07/06 07:25:58;;;;;;;;;;;;;;;24.30;49.42;97000.91;4237955;27;5753;-65
2023/07/06 07:28:01;;;;;;;;;;;;;;;24.31;49.27;97004.41;4249803;27;5590;-65
2023/07/06 07:30:05;;;;;;;;;;;;;;;24.29;48.88;96999.25;4253150;27;5582;-65
2023/07/06 07:32:09;;;;;;;;;;;;;;;24.30;49.09;97002.75;4251148;27;5635;-64
2023/07/06 07:34:14;;;;;;;;;;;;;;;24.31;49.24;96994.41;4245248;27;5608;-64
2023/07/06 07:36:19;;;;;;;;;;;;;;;24.35;49.05;97010.88;4248182;27;6118;-65
2023/07/06 07:38:22;;;;;;;;;;;;;;;24.34;49.04;96993.84;4251223;27;5599;-65
2023/07/06 07:40:25;;;;;;;;;;;;;;;24.33;48.83;97000.34;4251045;27;5677;-64
2023/07/06 07:42:30;;;;;;;;;;;;;;;24.32;49.24;96993.31;4250214;27;5578;-65
2023/07/06 07:44:34;;;;;;;;;;;;;;;24.31;49.14;96999.81;4246256;27;5673;-65
2023/07/06 07:46:37;;;;;;;;;;;;;;;24.29;49.04;96999.25;4243439;27;5642;-65
2023/07/06 07:48:45;;;;;;;;;;;;;;;24.27;49.10;96996.03;4248616;27;5673;-65
2023/07/06 07:50:50;;;;;;;;;;;;;;;24.25;49.03;96998.19;4249105;27;5785;-65
2023/07/06 07:52:53;;;;;;;;;;;;;;;24.25;49.13;97000.09;4242306;27;5597;-65
2023/07/06 07:54:56;;;;;;;;;;;;;;;24.22;49.65;96997.91;4248288;27;5766;-64
2023/07/06 07:56:59;;;;;;;;;;;;;;;24.18;49.48;97000.38;4246717;27;5720;-65
2023/07/06 07:59:02;;;;;;;;;;;;;;;24.16;49.55;96999.84;4246945;27;5803;-65
2023/07/06 08:01:07;;;;;;;;;;;;;;;24.14;49.00;97007.41;4253213;27;5610;-65
2023/07/06 08:03:10;;;;;;;;;;;;;;;24.13;49.23;96994.19;4253287;27;5590;-65
2023/07/06 08:05:14;;;;;;;;;;;;;;;24.11;49.08;97002.53;4253066;27;5722;-64
2023/07/06 08:07:18;;;;;;;;;;;;;;;24.09;49.13;97007.41;4247738;27;5609;-64
2023/07/06 08:09:21;;;;;;;;;;;;;;;24.07;49.48;96996.88;4233442;28;5744;-64
2023/07/06 08:11:25;;;;;;;;;;;;;;;24.10;49.13;97003.63;4245935;27;5665;-64
2023/07/06 08:13:29;;;;;;;;;;;;;;;24.09;49.07;97007.41;4248594;27;5582;-64
2023/07/06 08:15:31;;;;;;;;;;;;;;;24.08;49.45;97003.09;4249436;27;5721;-64
2023/07/06 08:17:36;;;;;;;;;;;;;;;24.06;49.76;97002.56;4253365;27;5478;-64
2023/07/06 08:19:40;;;;;;;;;;;;;;;24.05;49.47;96992.84;4252967;27;5792;-64
2023/07/06 08:22:04;;;;;;;;;;;;;;;24.06;49.48;96999.88;4232311;28;5601;-64
2023/07/06 08:24:11;;;;;;;;;;;;;;;24.06;49.24;96994.47;4250732;27;5585;-64
2023/07/06 08:26:15;;;;;;;;;;;;;;;24.07;49.33;97001.47;4251343;27;5659;-64
2023/07/06 08:28:21;;;;;;;;;;;;;;;24.07;49.68;96994.19;4251851;27;5677;-64
2023/07/06 08:30:24;;;;;;;;;;;;;;;24.07;49.26;96990.69;4252834;27;5509;-64
2023/07/06 08:32:27;;;;;;;;;;;;;;;24.07;49.76;96991.50;4252050;27;5583;-64
2023/07/06 08:34:30;;;;;;;;;;;;;;;24.09;49.39;96988.50;4248293;27;5658;-64
2023/07/06 08:36:33;;;;;;;;;;;;;;;24.11;49.68;96991.75;4252699;27;5863;-64
2023/07/06 08:38:37;;;;;;;;;;;;;;;24.11;49.36;96994.44;4252804;27;5586;-64
2023/07/06 08:40:42;;;;;;;;;;;;;;;24.11;49.80;96997.94;4249303;27;5819;-64
2023/07/06 08:42:47;;;;;;;;;;;;;;;24.12;49.58;96993.34;4252614;27;5670;-64
2023/07/06 08:44:53;;;;;;;;;;;;;;;24.12;49.50;96990.66;4252837;27;5706;-63
2023/07/06 08:46:56;;;;;;;;;;;;;;;24.14;49.40;96991.22;4252844;27;5489;-63
2023/07/06 08:49:00;;;;;;;;;;;;;;;24.14;49.52;96988.50;4246819;27;5735;-64
2023/07/06 08:51:10;;;;;;;;;;;;;;;24.13;49.85;96988.78;4242578;27;5711;-64
2023/07/06 08:53:14;;;;;;;;;;;;;;;24.12;49.48;96985.25;4248179;27;5673;-63
2023/07/06 08:55:18;;;;;;;;;;;;;;;24.14;49.50;96991.22;4246703;27;5825;-63
2023/07/06 08:57:25;;;;;;;;;;;;;;;24.16;49.82;96986.34;4234505;28;6137;-64
2023/07/06 08:59:38;;;;;;;;;;;;;;;24.14;49.64;96983.09;4234912;28;5759;-64
2023/07/06 09:01:42;;;;;;;;;;;;;;;24.14;49.44;96985.00;4235322;28;6626;-64
2023/07/06 09:03:49;;;;;;;;;;;;;;;24.15;49.56;96994.72;4235303;28;5613;-63
2023/07/06 09:05:53;;;;;;;;;;;;;;;24.15;49.86;96992.81;4237119;27;5628;-63
2023/07/06 09:07:56;;;;;;;;;;;;;;;24.14;50.02;96985.81;4249206;27;5658;-63
2023/07/06 09:10:04;;;;;;;;;;;;;;;24.14;50.08;96995.81;4237174;27;5741;-64
2023/07/06 09:12:19;;;;;;;;;;;;;;;24.14;49.82;96993.09;4238679;27;5856;-63
2023/07/06 09:14:28;;;;;;;;;;;;;;;24.16;50.01;96993.63;4244627;27;5749;-65
2023/07/06 09:16:35;;;;;;;;;;;;;;;24.18;50.21;96997.66;4249859;27;5697;-65
2023/07/06 09:18:38;;;;;;;;;;;;;;;24.20;50.00;96995.50;4249985;27;5078;-65
2023/07/06 09:20:46;;;;;;;;;;;;;;;24.17;49.97;96990.66;4250110;27;5578;-64
2023/07/06 09:22:50;;;;;;;;;;;;;;;24.18;49.77;96994.97;4248061;27;5595;-65
2023/07/06 09:24:53;;;;;;;;;;;;;;;24.16;49.91;96991.75;4250308;27;5700;-65
2023/07/06 09:26:58;;;;;;;;;;;;;;;24.14;49.74;96996.63;4249799;27;5686;-65
2023/07/06 09:29:18;;;;;;;;;;;;;;;24.14;50.01;96996.63;4243653;27;5693;-65
2023/07/06 09:31:23;;;;;;;;;;;;;;;24.13;50.05;96992.31;4243721;27;5578;-65
2023/07/06 09:33:27;;;;;;;;;;;;;;;24.12;49.83;96982.56;4246826;27;5653;-65
2023/07/06 09:35:36;;;;;;;;;;;;;;;24.12;50.26;96982.56;4249652;27;5546;-65
2023/07/06 09:37:45;;;;;;;;;;;;;;;24.13;49.85;96978.78;4249789;27;5600;-65
2023/07/06 09:39:58;;;;;;;;;;;;;;;24.14;50.13;96980.41;4245250;27;5594;-65
2023/07/06 09:42:02;;;;;;;;;;;;;;;24.16;49.98;96978.25;4241564;27;5705;-65
2023/07/06 09:44:05;;;;;;;;;;;;;;;24.15;49.88;96979.31;4249947;27;5685;-65
2023/07/06 09:46:11;;;;;;;;;;;;;;;24.17;50.05;96979.03;4247888;27;5761;-65
2023/07/06 09:48:28;;;;;;;;;;;;;;;24.17;50.29;96976.34;4249843;27;5667;-65
2023/07/06 09:50:35;;;;;;;;;;;;;;;24.19;49.90;96983.06;4249829;27;5687;-65
2023/07/06 09:52:41;;;;;;;;;;;;;;;24.18;49.86;96976.06;4249232;27;5594;-64
2023/07/06 09:54:50;;;;;;;;;;;;;;;24.18;50.28;96978.75;4249692;27;5674;-64
2023/07/06 09:56:54;;;;;;;;;;;;;;;24.21;49.76;96972.00;4249162;27;5898;-64
2023/07/06 09:58:58;;;;;;;;;;;;;;;24.22;50.01;96979.81;4248654;27;5590;-64
2023/07/06 10:01:10;;;;;;;;;;;;;;;24.23;50.00;96978.72;4232564;27;5592;-64
2023/07/06 10:03:33;;;;;;;;;;;;;;;24.23;49.96;96976.03;4247815;27;5590;-64
2023/07/06 10:05:45;;;;;;;;;;;;;;;24.25;49.78;96983.88;4249024;27;5677;-64
2023/07/06 10:07:54;;;;;;;;;;;;;;;24.28;49.96;96980.63;4249901;27;5749;-64
2023/07/06 10:10:16;;;;;;;;;;;;;;;24.30;50.34;96976.59;4249745;27;5091;-63
2023/07/06 10:12:28;;;;;;;;;;;;;;;24.30;50.35;96973.88;4240944;27;5775;-63
2023/07/06 10:14:38;;;;;;;;;;;;;;;24.31;50.23;96972.78;4246805;27;5665;-63
2023/07/06 10:16:50;;;;;;;;;;;;;;;24.34;50.24;96977.63;4241370;27;5815;-64
2023/07/06 10:19:06;;;;;;;;;;;;;;;24.34;50.31;96977.63;4249430;27;5574;-64
2023/07/06 10:21:14;;;;;;;;;;;;;;;24.32;50.18;96979.81;4241891;27;5844;-64
2023/07/06 10:23:32;;;;;;;;;;;;;;;24.31;50.06;96975.50;4248037;27;5681;-64
2023/07/06 10:25:46;;;;;;;;;;;;;;;24.32;50.45;96971.72;4249057;27;5786;-63
2023/07/06 10:27:55;;;;;;;;;;;;;;;24.34;50.25;96974.13;4249223;27;6585;-63
2023/07/06 10:30:02;;;;;;;;;;;;;;;24.35;50.25;96971.19;4245408;27;7671;-64
2023/07/06 10:32:10;;;;;;;;;;;;;;;24.35;50.09;96976.59;4241636;27;5681;-64
2023/07/06 10:34:18;;;;;;;;;;;;;;;24.36;49.88;96971.97;4248532;27;5840;-64
2023/07/06 10:36:23;;;;;;;;;;;;;;;24.37;49.70;96974.41;4248965;27;5665;-64
2023/07/06 10:38:27;;;;;;;;;;;;;;;24.40;49.84;96978.44;4247896;27;5765;-64
2023/07/06 10:40:30;;;;;;;;;;;;;;;24.41;49.90;96971.13;4248256;27;5812;-63
2023/07/06 10:42:33;;;;;;;;;;;;;;;24.42;49.72;96970.06;4249557;27;5595;-64
2023/07/06 10:44:46;;;;;;;;;;;;;;;24.44;49.52;96971.38;4249065;27;5079;-63
2023/07/06 10:46:56;;;;;;;;;;;;;;;24.46;49.69;96976.50;4248793;27;5598;-65
2023/07/06 10:49:17;;;;;;;;;;;;;;;24.47;49.85;96968.16;4242937;27;5788;-65
2023/07/06 10:51:22;;;;;;;;;;;;;;;24.48;49.35;96974.38;4248632;27;5773;-64
2023/07/06 10:53:36;;;;;;;;;;;;;;;24.48;49.55;96974.38;4244564;27;5666;-64
2023/07/06 10:55:40;;;;;;;;;;;;;;;24.49;49.39;96979.50;4246898;27;5727;-64
2023/07/06 10:57:49;;;;;;;;;;;;;;;24.52;49.14;96970.81;4248038;27;7654;-64
2023/07/06 11:00:06;;;;;;;;;;;;;;;24.51;48.79;96979.22;4248202;27;5902;-67
2023/07/06 11:02:21;;;;;;;;;;;;;;;24.49;48.73;96971.38;4241741;27;5658;-65